sensor_id;sensor_type;location;lat;lon;timestamp;pressure;altitude;pressure_sealevel;temperature;humidity
60015;BME280;45867;52.480;6.056;2024-01-30T00:00:16;101286.25;;;5.03;100.00
60015;BME280;45867;52.480;6.056;2024-01-30T00:02:43;101265.59;;;5.06;100.00
60015;BME280;45867;52.480;6.056;2024-01-30T00:05:09;101256.13;;;5.05;100.00
60015;BME280;45867;52.480;6.056;2024-01-30T00:07:36;101245.44;;;5.00;100.00
60015;BME280;45867;52.480;6.056;2024-01-30T00:10:03;101283.91;;;5.13;100.00
60015;BME280;45867;52.480;6.056;2024-01-30T00:12:29;101267.69;;;4.98;100.00
60015;BME280;45867;52.480;6.056;2024-01-30T00:14:56;101290.25;;;5.05;100.00
60015;BME280;45867;52.480;6.056;2024-01-30T00:17:22;101292.72;;;5.00;100.00
60015;BME280;45867;52.480;6.056;2024-01-30T00:19:49;101281.91;;;4.90;100.00
60015;BME280;45867;52.480;6.056;2024-01-30T00:22:19;101277.53;;;4.84;100.00
60015;BME280;45867;52.480;6.056;2024-01-30T00:24:45;101259.28;;;4.71;100.00
60015;BME280;45867;52.480;6.056;2024-01-30T00:27:14;101261.03;;;4.77;100.00
60015;BME280;45867;52.480;6.056;2024-01-30T00:29:41;101257.31;;;4.84;100.00
60015;BME280;45867;52.480;6.056;2024-01-30T00:32:08;101254.25;;;4.87;100.00
60015;BME280;45867;52.480;6.056;2024-01-30T00:34:34;101258.91;;;4.85;100.00
60015;BME280;45867;52.480;6.056;2024-01-30T00:37:01;101233.78;;;4.78;100.00
60015;BME280;45867;52.480;6.056;2024-01-30T00:39:27;101216.31;;;4.65;100.00
60015;BME280;45867;52.480;6.056;2024-01-30T00:41:54;101231.34;;;4.76;100.00
60015;BME280;45867;52.480;6.056;2024-01-30T00:44:20;101212.22;;;4.69;100.00
60015;BME280;45867;52.480;6.056;2024-01-30T00:46:47;101207.84;;;4.63;100.00
60015;BME280;45867;52.480;6.056;2024-01-30T00:49:14;101209.88;;;4.61;100.00
60015;BME280;45867;52.480;6.056;2024-01-30T00:51:40;101199.63;;;4.59;100.00
60015;BME280;45867;52.480;6.056;2024-01-30T00:54:07;101179.50;;;4.53;100.00
60015;BME280;45867;52.480;6.056;2024-01-30T00:56:33;101180.50;;;4.52;100.00
60015;BME280;45867;52.480;6.056;2024-01-30T00:59:00;101179.66;;;4.58;100.00
60015;BME280;45867;52.480;6.056;2024-01-30T01:01:30;101169.00;;;4.53;100.00
60015;BME280;45867;52.480;6.056;2024-01-30T01:03:56;101158.22;;;4.36;100.00
60015;BME280;45867;52.480;6.056;2024-01-30T01:06:23;101161.09;;;4.35;100.00
60015;BME280;45867;52.480;6.056;2024-01-30T01:08:49;101137.72;;;4.08;100.00
60015;BME280;45867;52.480;6.056;2024-01-30T01:11:16;101138.13;;;4.05;100.00
60015;BME280;45867;52.480;6.056;2024-01-30T01:13:42;101151.19;;;4.12;100.00
60015;BME280;45867;52.480;6.056;2024-01-30T01:16:09;101135.50;;;4.05;100.00
60015;BME280;45867;52.480;6.056;2024-01-30T01:18:35;101129.63;;;4.10;100.00
60015;BME280;45867;52.480;6.056;2024-01-30T01:21:02;101092.88;;;3.91;100.00
60015;BME280;45867;52.480;6.056;2024-01-30T01:23:29;101078.31;;;3.95;100.00
60015;BME280;45867;52.480;6.056;2024-01-30T01:25:55;101096.63;;;4.02;100.00
60015;BME280;45867;52.480;6.056;2024-01-30T01:28:26;101083.50;;;4.02;100.00
60015;BME280;45867;52.480;6.056;2024-01-30T01:30:53;101064.84;;;3.92;100.00
60015;BME280;45867;52.480;6.056;2024-01-30T01:33:19;101071.47;;;3.94;100.00
60015;BME280;45867;52.480;6.056;2024-01-30T01:35:46;101059.50;;;3.80;100.00
60015;BME280;45867;52.480;6.056;2024-01-30T01:38:12;101071.81;;;3.80;100.00
60015;BME280;45867;52.480;6.056;2024-01-30T01:40:39;101051.41;;;3.56;100.00
60015;BME280;45867;52.480;6.056;2024-01-30T01:43:05;101067.19;;;3.75;100.00
60015;BME280;45867;52.480;6.056;2024-01-30T01:45:32;101034.63;;;3.64;100.00
60015;BME280;45867;52.480;6.056;2024-01-30T01:47:59;101023.28;;;3.70;100.00
60015;BME280;45867;52.480;6.056;2024-01-30T01:50:26;101026.75;;;4.08;100.00
60015;BME280;45867;52.480;6.056;2024-01-30T01:52:53;101021.03;;;4.17;100.00
60015;BME280;45867;52.480;6.056;2024-01-30T01:55:21;100986.41;;;4.09;100.00
60015;BME280;45867;52.480;6.056;2024-01-30T01:57:54;100987.00;;;4.11;100.00
60015;BME280;45867;52.480;6.056;2024-01-30T02:00:22;100993.63;;;4.13;100.00
60015;BME280;45867;52.480;6.056;2024-01-30T02:02:52;100970.88;;;3.89;100.00
60015;BME280;45867;52.480;6.056;2024-01-30T02:05:20;100959.31;;;3.96;100.00
60015;BME280;45867;52.480;6.056;2024-01-30T02:07:50;100983.91;;;4.14;100.00
60015;BME280;45867;52.480;6.056;2024-01-30T02:10:17;100958.06;;;3.99;100.00
60015;BME280;45867;52.480;6.056;2024-01-30T02:12:43;100951.50;;;4.08;100.00
60015;BME280;45867;52.480;6.056;2024-01-30T02:15:13;100931.63;;;4.19;100.00
60015;BME280;45867;52.480;6.056;2024-01-30T02:17:40;100926.09;;;4.09;100.00
60015;BME280;45867;52.480;6.056;2024-01-30T02:20:07;100924.28;;;4.09;100.00
60015;BME280;45867;52.480;6.056;2024-01-30T02:22:34;100914.59;;;4.10;100.00
60015;BME280;45867;52.480;6.056;2024-01-30T02:25:04;100894.06;;;3.88;100.00
60015;BME280;45867;52.480;6.056;2024-01-30T02:27:31;100869.69;;;3.88;100.00
60015;BME280;45867;52.480;6.056;2024-01-30T02:29:57;100862.31;;;3.96;100.00
60015;BME280;45867;52.480;6.056;2024-01-30T02:32:24;100880.41;;;4.16;100.00
60015;BME280;45867;52.480;6.056;2024-01-30T02:34:53;100851.84;;;4.08;100.00
60015;BME280;45867;52.480;6.056;2024-01-30T02:37:22;100858.53;;;4.22;100.00
60015;BME280;45867;52.480;6.056;2024-01-30T02:39:49;100843.59;;;4.23;100.00
60015;BME280;45867;52.480;6.056;2024-01-30T02:42:16;100826.19;;;3.98;100.00
60015;BME280;45867;52.480;6.056;2024-01-30T02:44:42;100865.31;;;4.12;100.00
60015;BME280;45867;52.480;6.056;2024-01-30T02:47:09;100849.53;;;4.00;100.00
60015;BME280;45867;52.480;6.056;2024-01-30T02:49:35;100839.59;;;3.90;100.00
60015;BME280;45867;52.480;6.056;2024-01-30T02:52:02;100829.97;;;3.84;100.00
60015;BME280;45867;52.480;6.056;2024-01-30T02:54:30;100836.09;;;3.96;100.00
60015;BME280;45867;52.480;6.056;2024-01-30T02:56:56;100817.56;;;3.80;100.00
60015;BME280;45867;52.480;6.056;2024-01-30T02:59:23;100844.09;;;4.02;100.00
60015;BME280;45867;52.480;6.056;2024-01-30T03:01:49;100819.81;;;4.06;100.00
60015;BME280;45867;52.480;6.056;2024-01-30T03:04:16;100823.28;;;4.18;100.00
60015;BME280;45867;52.480;6.056;2024-01-30T03:06:46;100805.06;;;4.23;100.00
60015;BME280;45867;52.480;6.056;2024-01-30T03:09:16;100798.44;;;4.21;100.00
60015;BME280;45867;52.480;6.056;2024-01-30T03:11:42;100801.97;;;4.27;100.00
60015;BME280;45867;52.480;6.056;2024-01-30T03:14:09;100768.88;;;4.14;100.00
60015;BME280;45867;52.480;6.056;2024-01-30T03:16:35;100777.00;;;4.24;100.00
60015;BME280;45867;52.480;6.056;2024-01-30T03:19:02;100764.69;;;4.25;100.00
60015;BME280;45867;52.480;6.056;2024-01-30T03:21:29;100744.97;;;4.45;100.00
60015;BME280;45867;52.480;6.056;2024-01-30T03:23:58;100740.84;;;4.38;100.00
60015;BME280;45867;52.480;6.056;2024-01-30T03:26:25;100734.47;;;4.45;100.00
60015;BME280;45867;52.480;6.056;2024-01-30T03:28:51;100727.88;;;4.66;100.00
60015;BME280;45867;52.480;6.056;2024-01-30T03:31:18;100722.59;;;4.55;100.00
60015;BME280;45867;52.480;6.056;2024-01-30T03:33:45;100733.34;;;4.65;100.00
60015;BME280;45867;52.480;6.056;2024-01-30T03:36:15;100698.53;;;4.58;100.00
60015;BME280;45867;52.480;6.056;2024-01-30T03:38:42;100691.03;;;4.61;100.00
60015;BME280;45867;52.480;6.056;2024-01-30T03:41:08;100695.22;;;4.74;100.00
60015;BME280;45867;52.480;6.056;2024-01-30T03:43:35;100688.38;;;4.73;100.00
60015;BME280;45867;52.480;6.056;2024-01-30T03:46:02;100645.03;;;4.47;100.00
60015;BME280;45867;52.480;6.056;2024-01-30T03:48:29;100672.72;;;4.78;100.00
60015;BME280;45867;52.480;6.056;2024-01-30T03:51:00;100685.72;;;4.85;100.00
60015;BME280;45867;52.480;6.056;2024-01-30T03:53:27;100702.03;;;4.99;100.00
60015;BME280;45867;52.480;6.056;2024-01-30T03:55:56;100675.09;;;4.92;100.00
60015;BME280;45867;52.480;6.056;2024-01-30T03:58:22;100669.06;;;4.91;100.00
60015;BME280;45867;52.480;6.056;2024-01-30T04:00:49;100671.41;;;5.04;100.00
60015;BME280;45867;52.480;6.056;2024-01-30T04:03:16;100658.56;;;5.20;100.00
60015;BME280;45867;52.480;6.056;2024-01-30T04:05:43;100635.31;;;5.11;100.00
60015;BME280;45867;52.480;6.056;2024-01-30T04:08:10;100635.63;;;5.15;100.00
60015;BME280;45867;52.480;6.056;2024-01-30T04:10:36;100650.41;;;5.33;100.00
60015;BME280;45867;52.480;6.056;2024-01-30T04:13:03;100662.59;;;5.39;100.00
60015;BME280;45867;52.480;6.056;2024-01-30T04:15:30;100654.78;;;5.27;100.00
60015;BME280;45867;52.480;6.056;2024-01-30T04:17:59;100664.84;;;5.47;100.00
60015;BME280;45867;52.480;6.056;2024-01-30T04:20:26;100669.16;;;5.53;100.00
60015;BME280;45867;52.480;6.056;2024-01-30T04:22:53;100671.75;;;5.65;100.00
60015;BME280;45867;52.480;6.056;2024-01-30T04:25:19;100665.22;;;5.68;100.00
60015;BME280;45867;52.480;6.056;2024-01-30T04:27:46;100670.81;;;5.71;100.00
60015;BME280;45867;52.480;6.056;2024-01-30T04:30:13;100680.84;;;5.74;100.00
60015;BME280;45867;52.480;6.056;2024-01-30T04:32:39;100685.53;;;5.72;100.00
60015;BME280;45867;52.480;6.056;2024-01-30T04:35:06;100711.44;;;5.81;100.00
60015;BME280;45867;52.480;6.056;2024-01-30T04:37:37;100705.88;;;5.77;100.00
60015;BME280;45867;52.480;6.056;2024-01-30T04:40:04;100711.81;;;5.72;100.00
60015;BME280;45867;52.480;6.056;2024-01-30T04:42:31;100718.91;;;5.72;100.00
60015;BME280;45867;52.480;6.056;2024-01-30T04:44:57;100744.41;;;5.71;100.00
60015;BME280;45867;52.480;6.056;2024-01-30T04:47:24;100755.16;;;5.70;100.00
60015;BME280;45867;52.480;6.056;2024-01-30T04:49:51;100783.94;;;5.76;100.00
60015;BME280;45867;52.480;6.056;2024-01-30T04:52:24;100791.84;;;5.76;100.00
60015;BME280;45867;52.480;6.056;2024-01-30T04:54:50;100791.06;;;5.64;100.00
60015;BME280;45867;52.480;6.056;2024-01-30T04:57:17;100807.31;;;5.61;100.00
60015;BME280;45867;52.480;6.056;2024-01-30T04:59:43;100810.50;;;5.63;100.00
60015;BME280;45867;52.480;6.056;2024-01-30T05:02:10;100799.00;;;5.52;100.00
60015;BME280;45867;52.480;6.056;2024-01-30T05:04:37;100848.78;;;5.71;100.00
60015;BME280;45867;52.480;6.056;2024-01-30T05:07:04;100836.75;;;5.75;100.00
60015;BME280;45867;52.480;6.056;2024-01-30T05:09:33;100860.19;;;5.76;100.00
60015;BME280;45867;52.480;6.056;2024-01-30T05:11:59;100858.16;;;5.67;100.00
60015;BME280;45867;52.480;6.056;2024-01-30T05:14:26;100859.56;;;5.57;100.00
60015;BME280;45867;52.480;6.056;2024-01-30T05:16:53;100873.56;;;5.75;100.00
60015;BME280;45867;52.480;6.056;2024-01-30T05:19:19;100871.66;;;5.59;100.00
60015;BME280;45867;52.480;6.056;2024-01-30T05:21:49;100874.75;;;5.55;100.00
60015;BME280;45867;52.480;6.056;2024-01-30T05:24:16;100905.72;;;5.65;100.00
60015;BME280;45867;52.480;6.056;2024-01-30T05:26:46;100913.03;;;5.63;100.00
60015;BME280;45867;52.480;6.056;2024-01-30T05:29:13;100901.03;;;5.55;100.00
60015;BME280;45867;52.480;6.056;2024-01-30T05:31:39;100925.16;;;5.64;100.00
60015;BME280;45867;52.480;6.056;2024-01-30T05:34:06;100937.81;;;5.67;100.00
60015;BME280;45867;52.480;6.056;2024-01-30T05:36:33;100945.50;;;5.69;100.00
60015;BME280;45867;52.480;6.056;2024-01-30T05:38:59;100960.69;;;5.78;100.00
60015;BME280;45867;52.480;6.056;2024-01-30T05:41:26;100971.66;;;5.87;100.00
60015;BME280;45867;52.480;6.056;2024-01-30T05:43:52;100971.19;;;5.90;100.00
60015;BME280;45867;52.480;6.056;2024-01-30T05:46:19;100974.50;;;6.09;100.00
60015;BME280;45867;52.480;6.056;2024-01-30T05:48:50;100973.72;;;6.09;100.00
60015;BME280;45867;52.480;6.056;2024-01-30T05:51:17;100990.53;;;6.08;100.00
60015;BME280;45867;52.480;6.056;2024-01-30T05:53:44;100993.03;;;6.14;100.00
60015;BME280;45867;52.480;6.056;2024-01-30T05:56:10;100982.63;;;6.08;100.00
60015;BME280;45867;52.480;6.056;2024-01-30T05:58:37;100985.50;;;6.06;100.00
60015;BME280;45867;52.480;6.056;2024-01-30T06:01:07;100993.50;;;6.11;100.00
60015;BME280;45867;52.480;6.056;2024-01-30T06:03:34;101002.84;;;6.31;100.00
60015;BME280;45867;52.480;6.056;2024-01-30T06:06:01;101007.75;;;6.27;100.00
60015;BME280;45867;52.480;6.056;2024-01-30T06:08:30;101015.47;;;6.17;100.00
60015;BME280;45867;52.480;6.056;2024-01-30T06:11:00;101010.88;;;6.12;100.00
60015;BME280;45867;52.480;6.056;2024-01-30T06:13:31;101014.09;;;6.14;100.00
60015;BME280;45867;52.480;6.056;2024-01-30T06:15:58;101018.34;;;6.04;100.00
60015;BME280;45867;52.480;6.056;2024-01-30T06:18:24;101041.53;;;6.07;100.00
60015;BME280;45867;52.480;6.056;2024-01-30T06:20:51;101066.59;;;6.09;100.00
60015;BME280;45867;52.480;6.056;2024-01-30T06:23:18;101044.06;;;6.02;100.00
60015;BME280;45867;52.480;6.056;2024-01-30T06:25:44;101061.19;;;6.16;100.00
60015;BME280;45867;52.480;6.056;2024-01-30T06:28:11;101051.03;;;6.08;100.00
60015;BME280;45867;52.480;6.056;2024-01-30T06:30:37;101044.28;;;6.00;100.00
60015;BME280;45867;52.480;6.056;2024-01-30T06:33:06;101067.72;;;6.13;100.00
60015;BME280;45867;52.480;6.056;2024-01-30T06:35:33;101073.44;;;6.10;100.00
60015;BME280;45867;52.480;6.056;2024-01-30T06:37:59;101042.56;;;5.94;100.00
60015;BME280;45867;52.480;6.056;2024-01-30T06:40:26;101060.88;;;6.00;100.00
60015;BME280;45867;52.480;6.056;2024-01-30T06:42:53;101058.81;;;6.03;100.00
60015;BME280;45867;52.480;6.056;2024-01-30T06:45:19;101094.94;;;6.19;100.00
60015;BME280;45867;52.480;6.056;2024-01-30T06:47:46;101095.84;;;6.25;100.00
60015;BME280;45867;52.480;6.056;2024-01-30T06:53:34;101088.53;;;6.27;100.00
60015;BME280;45867;52.480;6.056;2024-01-30T06:56:01;101108.88;;;6.43;100.00
60015;BME280;45867;52.480;6.056;2024-01-30T06:58:27;101090.72;;;6.30;100.00
60015;BME280;45867;52.480;6.056;2024-01-30T07:00:57;101098.72;;;6.47;100.00
60015;BME280;45867;52.480;6.056;2024-01-30T07:03:23;101071.75;;;6.28;100.00
60015;BME280;45867;52.480;6.056;2024-01-30T07:05:50;101104.06;;;6.52;100.00
60015;BME280;45867;52.480;6.056;2024-01-30T07:08:22;101070.91;;;6.27;100.00
60015;BME280;45867;52.480;6.056;2024-01-30T07:10:49;101101.47;;;6.40;100.00
60015;BME280;45867;52.480;6.056;2024-01-30T07:13:15;101116.34;;;6.34;100.00
60015;BME280;45867;52.480;6.056;2024-01-30T07:15:42;101107.41;;;6.47;100.00
60015;BME280;45867;52.480;6.056;2024-01-30T07:18:09;101120.31;;;6.49;100.00
60015;BME280;45867;52.480;6.056;2024-01-30T07:20:39;101139.66;;;6.66;100.00
60015;BME280;45867;52.480;6.056;2024-01-30T07:23:05;101143.44;;;6.58;100.00
60015;BME280;45867;52.480;6.056;2024-01-30T07:25:37;101137.38;;;6.58;100.00
60015;BME280;45867;52.480;6.056;2024-01-30T07:28:04;101162.66;;;6.71;100.00
60015;BME280;45867;52.480;6.056;2024-01-30T07:30:31;101142.47;;;6.76;100.00
60015;BME280;45867;52.480;6.056;2024-01-30T07:32:57;101152.22;;;6.87;100.00
60015;BME280;45867;52.480;6.056;2024-01-30T07:35:24;101172.94;;;6.96;100.00
60015;BME280;45867;52.480;6.056;2024-01-30T07:37:51;101185.59;;;7.10;100.00
60015;BME280;45867;52.480;6.056;2024-01-30T07:40:17;101190.06;;;7.10;100.00
60015;BME280;45867;52.480;6.056;2024-01-30T07:42:44;101192.56;;;7.17;100.00
60015;BME280;45867;52.480;6.056;2024-01-30T07:45:11;101198.72;;;7.34;100.00
60015;BME280;45867;52.480;6.056;2024-01-30T07:47:37;101195.69;;;7.42;100.00
60015;BME280;45867;52.480;6.056;2024-01-30T07:50:04;101216.88;;;7.47;100.00
60015;BME280;45867;52.480;6.056;2024-01-30T07:52:31;101235.56;;;7.46;100.00
60015;BME280;45867;52.480;6.056;2024-01-30T07:54:58;101215.44;;;7.40;100.00
60015;BME280;45867;52.480;6.056;2024-01-30T07:57:27;101240.78;;;7.57;100.00
60015;BME280;45867;52.480;6.056;2024-01-30T07:59:54;101262.47;;;7.60;100.00
60015;BME280;45867;52.480;6.056;2024-01-30T08:02:23;101279.66;;;7.62;100.00
60015;BME280;45867;52.480;6.056;2024-01-30T08:04:50;101300.25;;;7.77;100.00
60015;BME280;45867;52.480;6.056;2024-01-30T08:07:16;101300.72;;;7.74;100.00
60015;BME280;45867;52.480;6.056;2024-01-30T08:09:43;101326.72;;;7.82;100.00
60015;BME280;45867;52.480;6.056;2024-01-30T08:22:25;101336.84;;;7.73;100.00
60015;BME280;45867;52.480;6.056;2024-01-30T08:24:52;101374.09;;;7.89;100.00
60015;BME280;45867;52.480;6.056;2024-01-30T08:27:19;101382.22;;;7.87;100.00
60015;BME280;45867;52.480;6.056;2024-01-30T08:29:45;101388.38;;;8.05;100.00
60015;BME280;45867;52.480;6.056;2024-01-30T08:32:12;101404.66;;;8.13;100.00
60015;BME280;45867;52.480;6.056;2024-01-30T08:34:38;101415.47;;;8.29;100.00
60015;BME280;45867;52.480;6.056;2024-01-30T08:37:05;101427.97;;;8.45;100.00
60015;BME280;45867;52.480;6.056;2024-01-30T08:39:31;101440.47;;;8.50;100.00
60015;BME280;45867;52.480;6.056;2024-01-30T08:41:58;101452.59;;;8.62;100.00
60015;BME280;45867;52.480;6.056;2024-01-30T08:44:25;101453.38;;;8.63;100.00
60015;BME280;45867;52.480;6.056;2024-01-30T08:46:51;101463.41;;;8.78;100.00
60015;BME280;45867;52.480;6.056;2024-01-30T08:49:19;101460.28;;;8.81;100.00
60015;BME280;45867;52.480;6.056;2024-01-30T08:51:46;101473.59;;;9.03;100.00
60015;BME280;45867;52.480;6.056;2024-01-30T08:54:13;101489.06;;;9.11;100.00
60015;BME280;45867;52.480;6.056;2024-01-30T08:56:39;101503.81;;;9.24;100.00
60015;BME280;45867;52.480;6.056;2024-01-30T08:59:06;101510.00;;;9.29;100.00
60015;BME280;45867;52.480;6.056;2024-01-30T09:01:33;101519.22;;;9.27;100.00
60015;BME280;45867;52.480;6.056;2024-01-30T09:04:00;101558.75;;;9.33;100.00
60015;BME280;45867;52.480;6.056;2024-01-30T09:06:27;101562.97;;;9.34;100.00
60015;BME280;45867;52.480;6.056;2024-01-30T09:08:53;101552.19;;;9.36;100.00
60015;BME280;45867;52.480;6.056;2024-01-30T09:11:20;101567.78;;;9.54;100.00
60015;BME280;45867;52.480;6.056;2024-01-30T09:13:47;101573.34;;;9.53;100.00
60015;BME280;45867;52.480;6.056;2024-01-30T09:16:18;101577.19;;;9.62;100.00
60015;BME280;45867;52.480;6.056;2024-01-30T09:18:45;101582.94;;;9.76;100.00
60015;BME280;45867;52.480;6.056;2024-01-30T09:21:12;101588.88;;;9.83;100.00
60015;BME280;45867;52.480;6.056;2024-01-30T09:23:41;101590.97;;;9.81;100.00
60015;BME280;45867;52.480;6.056;2024-01-30T09:26:08;101627.47;;;9.96;100.00
60015;BME280;45867;52.480;6.056;2024-01-30T09:28:34;101636.78;;;9.98;100.00
60015;BME280;45867;52.480;6.056;2024-01-30T09:31:04;101641.25;;;9.98;100.00
60015;BME280;45867;52.480;6.056;2024-01-30T09:33:34;101667.75;;;10.15;100.00
60015;BME280;45867;52.480;6.056;2024-01-30T09:36:00;101667.50;;;9.99;100.00
60015;BME280;45867;52.480;6.056;2024-01-30T09:38:27;101712.53;;;10.16;100.00
60015;BME280;45867;52.480;6.056;2024-01-30T09:40:54;101738.53;;;10.19;100.00
60015;BME280;45867;52.480;6.056;2024-01-30T09:43:23;101751.84;;;10.25;100.00
60015;BME280;45867;52.480;6.056;2024-01-30T09:45:53;101776.88;;;10.29;100.00
60015;BME280;45867;52.480;6.056;2024-01-30T09:48:20;101778.81;;;10.21;100.00
60015;BME280;45867;52.480;6.056;2024-01-30T09:50:47;101829.91;;;10.34;100.00
60015;BME280;45867;52.480;6.056;2024-01-30T09:53:14;101838.47;;;10.24;100.00
60015;BME280;45867;52.480;6.056;2024-01-30T09:55:42;101877.59;;;10.34;100.00
60015;BME280;45867;52.480;6.056;2024-01-30T09:58:09;101898.41;;;10.42;100.00
60015;BME280;45867;52.480;6.056;2024-01-30T10:00:36;101905.91;;;10.45;100.00
60015;BME280;45867;52.480;6.056;2024-01-30T10:03:03;101915.34;;;10.41;100.00
60015;BME280;45867;52.480;6.056;2024-01-30T10:05:31;101951.69;;;10.57;100.00
60015;BME280;45867;52.480;6.056;2024-01-30T10:07:58;101978.09;;;10.52;100.00
60015;BME280;45867;52.480;6.056;2024-01-30T10:10:25;101975.81;;;10.44;100.00
60015;BME280;45867;52.480;6.056;2024-01-30T10:12:53;101997.38;;;10.48;100.00
60015;BME280;45867;52.480;6.056;2024-01-30T10:15:20;102008.41;;;10.56;100.00
60015;BME280;45867;52.480;6.056;2024-01-30T10:17:46;102013.06;;;10.66;100.00
60015;BME280;45867;52.480;6.056;2024-01-30T10:20:13;102027.47;;;10.70;100.00
60015;BME280;45867;52.480;6.056;2024-01-30T10:22:43;102080.81;;;10.74;100.00
60015;BME280;45867;52.480;6.056;2024-01-30T10:25:09;102096.53;;;10.63;100.00
60015;BME280;45867;52.480;6.056;2024-01-30T10:27:39;102088.13;;;10.55;100.00
60015;BME280;45867;52.480;6.056;2024-01-30T10:30:07;102139.72;;;10.76;100.00
60015;BME280;45867;52.480;6.056;2024-01-30T10:32:34;102153.94;;;10.70;100.00
60015;BME280;45867;52.480;6.056;2024-01-30T10:35:01;102151.97;;;10.65;100.00
60015;BME280;45867;52.480;6.056;2024-01-30T10:37:29;102159.59;;;10.61;100.00
60015;BME280;45867;52.480;6.056;2024-01-30T10:40:02;102192.19;;;10.74;100.00
60015;BME280;45867;52.480;6.056;2024-01-30T10:42:31;102215.56;;;10.77;100.00
60015;BME280;45867;52.480;6.056;2024-01-30T10:45:14;102211.00;;;10.72;100.00
60015;BME280;45867;52.480;6.056;2024-01-30T10:47:43;102223.88;;;10.80;100.00
60015;BME280;45867;52.480;6.056;2024-01-30T10:50:10;102229.06;;;10.75;100.00
60015;BME280;45867;52.480;6.056;2024-01-30T10:52:37;102289.13;;;10.93;100.00
60015;BME280;45867;52.480;6.056;2024-01-30T10:55:05;102296.63;;;10.73;100.00
60015;BME280;45867;52.480;6.056;2024-01-30T10:57:42;102308.50;;;10.70;100.00
60015;BME280;45867;52.480;6.056;2024-01-30T11:00:13;102307.00;;;10.74;100.00
60015;BME280;45867;52.480;6.056;2024-01-30T11:02:43;102355.09;;;10.89;100.00
60015;BME280;45867;52.480;6.056;2024-01-30T11:05:11;102355.53;;;10.86;100.00
60015;BME280;45867;52.480;6.056;2024-01-30T11:07:39;102383.41;;;10.77;100.00
60015;BME280;45867;52.480;6.056;2024-01-30T11:10:06;102425.50;;;10.85;100.00
60015;BME280;45867;52.480;6.056;2024-01-30T11:12:38;102478.59;;;10.97;100.00
60015;BME280;45867;52.480;6.056;2024-01-30T11:15:10;102512.50;;;10.95;100.00
60015;BME280;45867;52.480;6.056;2024-01-30T11:20:41;102564.44;;;11.03;100.00
60015;BME280;45867;52.480;6.056;2024-01-30T11:23:12;102558.84;;;10.93;100.00
60015;BME280;45867;52.480;6.056;2024-01-30T11:25:39;102604.22;;;11.03;100.00
60015;BME280;45867;52.480;6.056;2024-01-30T11:28:14;102623.50;;;11.10;100.00
60015;BME280;45867;52.480;6.056;2024-01-30T11:30:41;102641.41;;;11.15;100.00
60015;BME280;45867;52.480;6.056;2024-01-30T11:33:10;102645.63;;;11.99;100.00
60015;BME280;45867;52.480;6.056;2024-01-30T11:35:41;102708.16;;;12.37;100.00
60015;BME280;45867;52.480;6.056;2024-01-30T11:38:10;102754.28;;;12.66;100.00
60015;BME280;45867;52.480;6.056;2024-01-30T11:40:38;102793.34;;;12.42;100.00
60015;BME280;45867;52.480;6.056;2024-01-30T11:43:07;102866.44;;;12.52;100.00
60015;BME280;45867;52.480;6.056;2024-01-30T11:45:36;102883.88;;;12.36;100.00
60015;BME280;45867;52.480;6.056;2024-01-30T11:48:03;102906.09;;;12.11;100.00
60015;BME280;45867;52.480;6.056;2024-01-30T11:50:33;102915.53;;;12.07;100.00
60015;BME280;45867;52.480;6.056;2024-01-30T11:53:01;102901.81;;;11.92;100.00
60015;BME280;45867;52.480;6.056;2024-01-30T11:55:29;102901.63;;;11.93;100.00
60015;BME280;45867;52.480;6.056;2024-01-30T11:58:00;102865.22;;;11.75;100.00
60015;BME280;45867;52.480;6.056;2024-01-30T12:00:27;102815.94;;;11.49;100.00
60015;BME280;45867;52.480;6.056;2024-01-30T12:02:54;102809.22;;;11.28;100.00
60015;BME280;45867;52.480;6.056;2024-01-30T12:05:22;102790.94;;;11.20;100.00
60015;BME280;45867;52.480;6.056;2024-01-30T12:07:49;102761.75;;;11.20;100.00
60015;BME280;45867;52.480;6.056;2024-01-30T12:10:16;102740.91;;;11.05;100.00
60015;BME280;45867;52.480;6.056;2024-01-30T12:12:49;102735.88;;;11.16;100.00
60015;BME280;45867;52.480;6.056;2024-01-30T12:15:17;102735.47;;;10.82;100.00
60015;BME280;45867;52.480;6.056;2024-01-30T12:17:44;102743.84;;;10.79;100.00
60015;BME280;45867;52.480;6.056;2024-01-30T12:20:15;102741.50;;;10.89;100.00
60015;BME280;45867;52.480;6.056;2024-01-30T12:22:45;102751.78;;;10.60;100.00
60015;BME280;45867;52.480;6.056;2024-01-30T12:25:15;102780.19;;;10.28;100.00
60015;BME280;45867;52.480;6.056;2024-01-30T12:27:43;102771.59;;;10.01;100.00
60015;BME280;45867;52.480;6.056;2024-01-30T12:30:12;102789.69;;;10.11;100.00
60015;BME280;45867;52.480;6.056;2024-01-30T12:32:40;102770.06;;;9.87;100.00
60015;BME280;45867;52.480;6.056;2024-01-30T12:35:15;102809.03;;;9.80;100.00
60015;BME280;45867;52.480;6.056;2024-01-30T12:37:43;102810.50;;;9.62;100.00
60015;BME280;45867;52.480;6.056;2024-01-30T12:40:11;102803.38;;;9.69;100.00
60015;BME280;45867;52.480;6.056;2024-01-30T12:42:37;102804.56;;;9.73;100.00
60015;BME280;45867;52.480;6.056;2024-01-30T12:45:04;102823.69;;;9.75;100.00
60015;BME280;45867;52.480;6.056;2024-01-30T12:47:31;102814.31;;;9.80;100.00
60015;BME280;45867;52.480;6.056;2024-01-30T12:49:58;102833.22;;;9.83;100.00
60015;BME280;45867;52.480;6.056;2024-01-30T12:52:25;102830.03;;;9.74;100.00
60015;BME280;45867;52.480;6.056;2024-01-30T12:54:52;102845.00;;;9.87;100.00
60015;BME280;45867;52.480;6.056;2024-01-30T12:57:19;102856.69;;;9.80;100.00
60015;BME280;45867;52.480;6.056;2024-01-30T12:59:46;102895.41;;;9.67;100.00
60015;BME280;45867;52.480;6.056;2024-01-30T13:02:13;102877.16;;;9.46;100.00
60015;BME280;45867;52.480;6.056;2024-01-30T13:04:42;102892.91;;;9.14;100.00